Time;durP1;ratioP1;P1;durP2;ratioP2;P2;SDS_P1;SDS_P2;PMS_P1;PMS_P2;Temp;Humidity;BMP_temperature;BMP_pressure;BME280_temperature;BME280_humidity;BME280_pressure;Samples;Min_cycle;Max_cycle;Signal;HPM_P1;HPM_P2
2024/01/27 00:00:27;;;;;;;46.30;23.70;;;6.60;99.90;;;;;;4850762;29;20035;-82
2024/01/27 00:02:54;;;;;;;55.20;25.58;;;6.60;99.90;;;;;;4850389;29;20506;-85
2024/01/27 00:05:20;;;;;;;47.75;25.15;;;6.50;99.90;;;;;;4850089;29;20136;-85
2024/01/27 00:07:47;;;;;;;54.78;25.02;;;6.50;99.90;;;;;;4865741;29;20059;-85
2024/01/27 00:10:13;;;;;;;47.75;23.98;;;6.50;99.90;;;;;;4850412;29;20029;-83
2024/01/27 00:12:40;;;;;;;46.63;23.92;;;6.50;99.90;;;;;;4865099;29;20484;-86
2024/01/27 00:15:08;;;;;;;43.95;23.80;;;6.50;99.90;;;;;;4850396;29;20025;-84
2024/01/27 00:17:35;;;;;;;47.90;24.30;;;6.50;99.90;;;;;;4849953;29;20124;-85
2024/01/27 00:20:02;;;;;;;49.58;24.52;;;6.50;99.90;;;;;;4850071;29;20066;-83
2024/01/27 00:22:29;;;;;;;51.30;24.23;;;6.60;99.90;;;;;;4864062;29;20479;-84
2024/01/27 00:24:55;;;;;;;52.33;25.40;;;6.70;99.90;;;;;;4849169;29;20056;-85
2024/01/27 00:27:21;;;;;;;52.42;25.27;;;6.80;99.90;;;;;;4864368;29;20052;-83
2024/01/27 00:29:48;;;;;;;47.45;24.15;;;6.90;99.90;;;;;;4848789;29;20029;-87
2024/01/27 00:32:14;;;;;;;45.80;23.45;;;6.90;99.90;;;;;;4864112;29;20025;-84
2024/01/27 00:34:40;;;;;;;49.25;24.05;;;6.90;99.90;;;;;;4848643;29;20028;-84
2024/01/27 00:37:07;;;;;;;43.10;23.17;;;6.90;99.90;;;;;;4879450;29;20399;-84
2024/01/27 00:39:33;;;;;;;47.30;22.42;;;6.90;99.90;;;;;;4823606;29;1731715;-85
2024/01/27 00:42:00;;;;;;;43.03;21.77;;;7.00;99.90;;;;;;4899402;29;20525;-84
2024/01/27 00:44:26;;;;;;;44.38;22.70;;;7.00;99.90;;;;;;4883505;29;20132;-85
2024/01/27 00:46:52;;;;;;;44.63;22.55;;;7.10;99.90;;;;;;4884039;29;20056;-84
2024/01/27 00:49:19;;;;;;;42.28;22.17;;;7.00;99.90;;;;;;4883575;29;20032;-85
2024/01/27 00:51:45;;;;;;;42.00;21.85;;;7.00;99.90;;;;;;4883368;29;20076;-84
2024/01/27 00:54:12;;;;;;;42.78;22.08;;;7.00;99.90;;;;;;4883628;29;20032;-84
2024/01/27 00:56:38;;;;;;;38.70;21.05;;;6.90;99.90;;;;;;4884247;29;20029;-83
2024/01/27 00:59:04;;;;;;;45.80;22.58;;;6.80;99.90;;;;;;4884353;29;20135;-85
2024/01/27 01:01:31;;;;;;;44.95;23.00;;;6.70;99.90;;;;;;4884246;29;20024;-84
2024/01/27 01:03:57;;;;;;;46.22;23.60;;;6.60;99.90;;;;;;4884211;29;20068;-85
2024/01/27 01:06:24;;;;;;;48.75;25.63;;;6.50;99.90;;;;;;4893833;29;20043;-88
2024/01/27 01:08:50;;;;;;;53.72;26.20;;;6.40;99.90;;;;;;4866069;29;20391;-87
2024/01/27 01:11:16;;;;;;;55.20;27.23;;;6.30;99.90;;;;;;4881307;29;20029;-86
2024/01/27 01:13:43;;;;;;;51.03;25.63;;;6.30;99.90;;;;;;4865434;29;20040;-86
2024/01/27 01:16:09;;;;;;;50.33;25.85;;;6.30;99.90;;;;;;4894997;29;20040;-86
2024/01/27 01:18:36;;;;;;;47.38;25.58;;;6.40;99.90;;;;;;4884332;29;20028;-86
2024/01/27 01:21:02;;;;;;;48.83;25.00;;;6.40;99.90;;;;;;4884145;29;20033;-87
2024/01/27 01:23:28;;;;;;;45.33;22.95;;;6.30;99.90;;;;;;4883683;29;20043;-88
2024/01/27 01:25:56;;;;;;;41.47;23.35;;;6.30;99.90;;;;;;4870917;29;20036;-86
2024/01/27 01:28:23;;;;;;;38.75;21.52;;;6.20;99.90;;;;;;4864510;29;20033;-86
2024/01/27 01:30:50;;;;;;;38.08;22.77;;;6.10;99.90;;;;;;4879704;29;20029;-87
2024/01/27 01:33:16;;;;;;;39.17;21.38;;;6.00;99.90;;;;;;4864621;29;20032;-86
2024/01/27 01:35:43;;;;;;;42.17;22.17;;;5.90;99.90;;;;;;4864621;29;20033;-85
2024/01/27 01:38:09;;;;;;;39.38;21.40;;;5.80;99.90;;;;;;4864743;29;20025;-86
2024/01/27 01:40:36;;;;;;;47.63;23.40;;;5.90;99.90;;;;;;4880119;29;20127;-86
2024/01/27 01:43:04;;;;;;;41.53;22.73;;;5.90;99.90;;;;;;4864712;29;20595;-86
2024/01/27 01:45:30;;;;;;;43.58;21.83;;;5.90;99.90;;;;;;4879855;29;20116;-86
2024/01/27 01:47:56;;;;;;;36.20;20.23;;;5.90;99.90;;;;;;4864800;29;20033;-85
2024/01/27 01:50:23;;;;;;;39.28;22.02;;;6.00;99.90;;;;;;4880899;29;20033;-86
2024/01/27 01:52:52;;;;;;;40.67;22.70;;;6.10;99.90;;;;;;4865359;29;20100;-85
2024/01/27 01:55:19;;;;;;;43.60;23.13;;;6.20;99.90;;;;;;4880817;29;20052;-86
2024/01/27 01:57:49;;;;;;;45.95;23.58;;;6.30;99.90;;;;;;4865306;29;20036;-86
2024/01/27 02:00:19;;;;;;;40.70;22.95;;;6.40;99.90;;;;;;4880819;29;20166;-86
2024/01/27 02:02:46;;;;;;;45.80;22.95;;;6.40;99.90;;;;;;4880058;29;20108;-85
2024/01/27 02:05:13;;;;;;;40.78;23.98;;;6.50;99.90;;;;;;4865201;29;20029;-86
2024/01/27 02:07:42;;;;;;;40.42;23.02;;;6.50;99.90;;;;;;4865322;29;20039;-86
2024/01/27 02:10:18;;;;;;;48.53;25.33;;;6.50;99.90;;;;;;4865415;29;20501;-85
2024/01/27 02:12:45;;;;;;;43.15;23.25;;;6.50;99.90;;;;;;4880515;29;20037;-86
2024/01/27 02:15:15;;;;;;;41.50;23.95;;;6.50;99.90;;;;;;4864884;29;20033;-86
2024/01/27 02:17:41;;;;;;;48.03;26.50;;;6.60;99.90;;;;;;4880607;29;20037;-86
2024/01/27 02:20:11;;;;;;;47.97;26.38;;;6.60;99.90;;;;;;4865006;29;20063;-86
2024/01/27 02:22:37;;;;;;;50.92;26.77;;;6.60;99.90;;;;;;4880412;29;20447;-86
2024/01/27 02:25:04;;;;;;;50.55;27.13;;;6.70;99.90;;;;;;4849411;29;20033;-86
2024/01/27 02:27:31;;;;;;;52.58;27.83;;;6.70;99.90;;;;;;4849046;29;20482;-86
2024/01/27 02:29:57;;;;;;;52.78;27.15;;;6.80;99.90;;;;;;4864116;29;20097;-86
2024/01/27 02:32:23;;;;;;;52.97;27.13;;;6.80;99.90;;;;;;4880321;29;20129;-86
2024/01/27 02:34:50;;;;;;;49.35;26.17;;;6.90;99.90;;;;;;4863930;29;20053;-86
2024/01/27 02:37:17;;;;;;;54.85;28.98;;;6.90;99.90;;;;;;4879369;29;20029;-86
2024/01/27 02:39:43;;;;;;;49.28;28.20;;;6.90;99.90;;;;;;4888265;29;20053;-86
2024/01/27 02:42:10;;;;;;;48.58;26.55;;;6.90;99.90;;;;;;4879331;29;20030;-86
2024/01/27 02:44:36;;;;;;;47.33;26.27;;;7.00;99.90;;;;;;4879302;29;20073;-86
2024/01/27 02:47:02;;;;;;;45.90;26.98;;;7.00;99.90;;;;;;4863607;29;20059;-86
2024/01/27 02:49:30;;;;;;;52.05;26.73;;;7.10;99.90;;;;;;4848411;29;20080;-86
2024/01/27 02:51:57;;;;;;;45.53;26.17;;;7.00;99.90;;;;;;4863835;29;20033;-87
2024/01/27 02:54:23;;;;;;;44.60;25.83;;;7.10;99.90;;;;;;4848733;29;20475;-86
2024/01/27 02:56:50;;;;;;;43.00;26.48;;;7.20;99.90;;;;;;4863882;29;20132;-86
2024/01/27 02:59:16;;;;;;;38.90;24.80;;;7.10;99.90;;;;;;4848389;29;20065;-86
2024/01/27 03:01:43;;;;;;;46.90;25.08;;;7.10;99.90;;;;;;4864685;29;20029;-86
2024/01/27 03:04:09;;;;;;;43.30;24.27;;;7.10;99.90;;;;;;4849163;29;20048;-86
2024/01/27 03:06:35;;;;;;;44.00;24.73;;;7.00;99.90;;;;;;4864492;29;20029;-86
2024/01/27 03:09:03;;;;;;;48.85;24.67;;;7.00;99.90;;;;;;4849315;29;20033;-86
2024/01/27 03:11:29;;;;;;;41.47;24.90;;;6.90;99.90;;;;;;4864499;29;20039;-86
2024/01/27 03:13:56;;;;;;;37.95;23.13;;;6.90;99.90;;;;;;4852067;29;20499;-86
2024/01/27 03:16:23;;;;;;;42.55;25.00;;;6.80;99.90;;;;;;4868134;29;20036;-86
2024/01/27 03:18:49;;;;;;;40.35;24.05;;;6.80;99.90;;;;;;4852764;29;20559;-86
2024/01/27 03:21:16;;;;;;;42.15;24.17;;;6.80;99.90;;;;;;4868234;29;20392;-86
2024/01/27 03:23:42;;;;;;;42.10;24.38;;;6.80;99.90;;;;;;4852733;29;20037;-86
2024/01/27 03:26:09;;;;;;;41.08;23.35;;;6.90;99.90;;;;;;4868143;29;20029;-87
2024/01/27 03:28:35;;;;;;;40.45;22.50;;;7.00;99.90;;;;;;4852702;29;20040;-87
2024/01/27 03:31:01;;;;;;;37.95;23.08;;;7.00;99.90;;;;;;4866432;29;20056;-86
2024/01/27 03:33:30;;;;;;;35.50;23.33;;;7.00;99.90;;;;;;4851677;29;20032;-87
2024/01/27 03:35:56;;;;;;;40.15;23.58;;;7.00;99.90;;;;;;4867416;29;20060;-87
2024/01/27 03:38:23;;;;;;;36.53;21.35;;;7.00;99.90;;;;;;4852136;29;20033;-86
2024/01/27 03:40:49;;;;;;;39.88;21.90;;;7.00;99.90;;;;;;4863787;29;20089;-86
2024/01/27 03:43:16;;;;;;;34.08;21.08;;;6.90;99.90;;;;;;4848508;29;20112;-87
2024/01/27 03:45:43;;;;;;;37.47;21.88;;;6.90;99.90;;;;;;4832951;29;20029;-85
2024/01/27 03:48:10;;;;;;;35.00;21.63;;;6.90;99.90;;;;;;4848403;29;20030;-87
2024/01/27 03:50:36;;;;;;;36.00;22.00;;;7.00;99.90;;;;;;4833599;29;20090;-86
2024/01/27 03:53:03;;;;;;;37.47;22.65;;;7.00;99.90;;;;;;4853566;29;20029;-86
2024/01/27 03:55:29;;;;;;;35.38;22.05;;;7.20;99.90;;;;;;4849669;29;20053;-86
2024/01/27 03:57:55;;;;;;;30.60;20.67;;;7.30;99.90;;;;;;4847983;29;20029;-86
2024/01/27 04:00:22;;;;;;;28.15;20.38;;;7.40;99.90;;;;;;4832704;29;20102;-87
2024/01/27 04:02:48;;;;;;;32.20;21.73;;;7.50;99.90;;;;;;4832248;29;20034;-88
2024/01/27 04:05:17;;;;;;;34.25;21.20;;;7.50;99.90;;;;;;4832547;29;20429;-89
2024/01/27 04:07:45;;;;;;;36.35;21.77;;;7.60;99.90;;;;;;4847816;29;20033;-87
2024/01/27 04:10:11;;;;;;;37.42;22.50;;;7.70;99.90;;;;;;4833072;29;20041;-89
2024/01/27 04:12:37;;;;;;;40.35;22.98;;;7.70;99.90;;;;;;4848520;29;20025;-87
2024/01/27 04:15:04;;;;;;;38.45;23.15;;;7.80;99.90;;;;;;4833623;29;20503;-87
2024/01/27 04:17:30;;;;;;;36.13;22.98;;;7.80;99.90;;;;;;4848869;29;20088;-87
2024/01/27 04:19:57;;;;;;;40.97;24.02;;;7.90;99.90;;;;;;4833286;29;20033;-88
2024/01/27 04:22:23;;;;;;;42.22;24.30;;;7.90;99.90;;;;;;4849245;29;20029;-88
2024/01/27 04:24:50;;;;;;;47.83;25.63;;;7.80;99.90;;;;;;4833226;29;20453;-87
2024/01/27 04:27:16;;;;;;;45.25;24.80;;;7.90;99.90;;;;;;4865335;29;20035;-88
2024/01/27 04:29:43;;;;;;;39.22;25.15;;;7.80;99.90;;;;;;4877780;29;20049;-88
2024/01/27 04:32:10;;;;;;;42.72;23.92;;;7.80;99.90;;;;;;4893631;29;20022;-87
2024/01/27 04:34:36;;;;;;;41.55;24.98;;;7.80;99.90;;;;;;4893367;29;20037;-86
2024/01/27 04:37:02;;;;;;;41.58;24.80;;;7.80;99.90;;;;;;4877953;29;20033;-87
2024/01/27 04:39:29;;;;;;;38.05;24.13;;;7.80;99.90;;;;;;4880298;29;20062;-88
2024/01/27 04:41:56;;;;;;;42.75;26.02;;;7.70;99.90;;;;;;4866005;29;20065;-88
2024/01/27 04:44:22;;;;;;;40.55;24.80;;;7.60;99.90;;;;;;4874230;29;20099;-86
2024/01/27 04:46:49;;;;;;;33.42;22.73;;;7.50;99.90;;;;;;4851199;29;20503;-88
2024/01/27 04:49:15;;;;;;;36.15;23.60;;;7.50;99.90;;;;;;4866802;29;20048;-89
2024/01/27 04:51:42;;;;;;;37.78;23.98;;;7.50;99.90;;;;;;4851149;29;20036;-89
2024/01/27 04:54:11;;;;;;;41.30;24.23;;;7.40;99.90;;;;;;4866758;29;20546;-87
2024/01/27 04:56:38;;;;;;;47.60;25.02;;;7.50;99.90;;;;;;4865724;29;20033;-88
2024/01/27 04:59:04;;;;;;;50.88;24.90;;;7.50;99.90;;;;;;4880895;29;20475;-87
2024/01/27 05:01:32;;;;;;;45.10;27.35;;;7.50;99.90;;;;;;4865577;29;20048;-87
2024/01/27 05:04:00;;;;;;;46.38;26.73;;;7.60;99.90;;;;;;4880931;29;20051;-86
2024/01/27 05:06:26;;;;;;;53.05;27.58;;;7.60;99.90;;;;;;4865367;29;20025;-86
2024/01/27 05:08:52;;;;;;;54.85;27.83;;;7.70;99.90;;;;;;4865364;29;20032;-86
2024/01/27 05:11:29;;;;;;;55.38;29.95;;;7.80;99.90;;;;;;4865198;29;20029;-87
2024/01/27 05:13:55;;;;;;;55.55;29.33;;;8.00;99.90;;;;;;4880616;29;20037;-86
2024/01/27 05:16:22;;;;;;;54.53;30.25;;;8.30;99.90;;;;;;4864992;29;20068;-85
2024/01/27 05:18:48;;;;;;;56.22;30.98;;;8.40;99.90;;;;;;4880336;29;20033;-85
2024/01/27 05:21:15;;;;;;;59.33;29.08;;;8.60;99.90;;;;;;4864950;29;20037;-86
2024/01/27 05:23:42;;;;;;;57.53;30.33;;;8.70;99.90;;;;;;4864445;29;20037;-85
2024/01/27 05:26:10;;;;;;;59.58;30.77;;;8.80;99.90;;;;;;4861325;29;20029;-87
2024/01/27 05:28:39;;;;;;;58.83;31.35;;;8.80;99.90;;;;;;4847274;29;20054;-85
2024/01/27 05:31:08;;;;;;;64.47;33.17;;;8.90;99.90;;;;;;4847256;29;20029;-85
2024/01/27 05:33:36;;;;;;;67.90;33.08;;;8.90;99.90;;;;;;4846951;29;20041;-84
2024/01/27 05:36:03;;;;;;;65.95;31.45;;;9.00;99.90;;;;;;4855485;29;20058;-85
2024/01/27 05:38:31;;;;;;;65.57;32.40;;;9.00;99.90;;;;;;4881131;29;20077;-86
2024/01/27 05:41:02;;;;;;;64.05;32.50;;;9.00;99.90;;;;;;4881386;29;20049;-86
2024/01/27 05:43:28;;;;;;;72.47;34.00;;;9.10;99.90;;;;;;4882062;29;20120;-86
2024/01/27 05:45:55;;;;;;;75.00;34.88;;;9.00;99.90;;;;;;4882742;29;20025;-85
2024/01/27 05:48:22;;;;;;;66.70;33.22;;;9.00;99.90;;;;;;4881592;29;20039;-86
2024/01/27 05:50:58;;;;;;;69.70;34.40;;;9.10;99.90;;;;;;4881891;29;20032;-86
2024/01/27 05:53:25;;;;;;;70.65;35.33;;;9.10;99.90;;;;;;4896783;29;20033;-85
2024/01/27 05:55:55;;;;;;;65.97;34.70;;;9.10;99.90;;;;;;4880405;29;20060;-85
2024/01/27 05:58:21;;;;;;;77.50;35.35;;;9.20;99.90;;;;;;4880156;29;20032;-86
2024/01/27 06:00:48;;;;;;;75.28;35.20;;;9.10;99.90;;;;;;4880331;29;20043;-86
2024/01/27 06:03:16;;;;;;;76.53;35.60;;;9.10;99.90;;;;;;4895242;29;20380;-85
2024/01/27 06:05:43;;;;;;;68.47;35.75;;;9.10;99.90;;;;;;4879910;29;20071;-86
2024/01/27 06:08:10;;;;;;;66.85;34.45;;;9.30;99.90;;;;;;4880118;29;20147;-86
2024/01/27 06:10:37;;;;;;;72.10;35.60;;;9.30;99.90;;;;;;4881058;29;20036;-85
2024/01/27 06:13:04;;;;;;;67.00;34.40;;;9.40;99.90;;;;;;4880690;29;20039;-86
2024/01/27 06:15:31;;;;;;;67.72;35.20;;;9.40;99.90;;;;;;4881001;29;20084;-86
2024/01/27 06:17:57;;;;;;;76.57;35.97;;;9.50;99.90;;;;;;4880860;29;20029;-85
2024/01/27 06:20:24;;;;;;;67.30;32.00;;;9.50;99.90;;;;;;4880225;29;20076;-86
2024/01/27 06:22:54;;;;;;;76.68;34.67;;;9.50;99.90;;;;;;4880054;29;20037;-84
2024/01/27 06:25:21;;;;;;;63.35;33.25;;;9.60;99.90;;;;;;4880335;29;20041;-86
2024/01/27 06:27:51;;;;;;;74.70;32.72;;;9.60;99.90;;;;;;4880065;29;20115;-86
2024/01/27 06:30:18;;;;;;;72.13;33.35;;;9.60;99.90;;;;;;4880690;29;20108;-85
2024/01/27 06:32:44;;;;;;;65.28;33.38;;;9.60;99.90;;;;;;4880514;29;20033;-86
2024/01/27 06:35:11;;;;;;;68.93;33.22;;;9.60;99.90;;;;;;4879774;29;20048;-86
2024/01/27 06:37:37;;;;;;;75.25;34.55;;;9.70;99.90;;;;;;4880205;29;20164;-85
2024/01/27 06:40:04;;;;;;;72.28;34.22;;;9.70;99.90;;;;;;4896250;29;20053;-85
2024/01/27 06:42:31;;;;;;;73.55;35.17;;;9.80;99.90;;;;;;4880787;29;20128;-86
2024/01/27 06:44:58;;;;;;;73.10;35.22;;;10.00;99.90;;;;;;4880155;29;20041;-86
2024/01/27 06:47:24;;;;;;;71.63;33.13;;;10.10;99.90;;;;;;4862429;29;20030;-86
2024/01/27 06:49:57;;;;;;;64.32;33.10;;;10.30;99.90;;;;;;4867595;29;20102;-86
2024/01/27 06:52:23;;;;;;;54.97;31.05;;;10.40;99.90;;;;;;4867585;29;20033;-86
2024/01/27 06:54:49;;;;;;;58.03;29.90;;;10.70;99.90;;;;;;4867851;29;20037;-86
2024/01/27 06:57:20;;;;;;;54.60;29.42;;;10.70;99.90;;;;;;4899830;29;20041;-85
2024/01/27 06:59:55;;;;;;;55.67;28.95;;;10.80;99.90;;;;;;4901621;29;20036;-86
2024/01/27 07:02:29;;;;;;;54.67;27.50;;;11.00;99.90;;;;;;4867349;29;20065;-86
2024/01/27 07:04:56;;;;;;;48.37;27.80;;;11.30;99.90;;;;;;4851308;29;20038;-86
2024/01/27 07:07:27;;;;;;;52.78;28.88;;;11.20;99.90;;;;;;4851337;29;20389;-86
2024/01/27 07:09:55;;;;;;;57.50;32.90;;;11.10;99.90;;;;;;4851245;29;20098;-86
2024/01/27 07:12:22;;;;;;;57.55;34.55;;;10.90;99.90;;;;;;4851168;29;20026;-86
2024/01/27 07:14:48;;;;;;;60.42;35.22;;;10.80;99.90;;;;;;4851163;29;20034;-86
2024/01/27 07:17:15;;;;;;;64.50;36.55;;;10.60;99.90;;;;;;4865204;29;20034;-86
2024/01/27 07:19:41;;;;;;;65.82;37.08;;;10.40;99.90;;;;;;4866651;29;20033;-86
2024/01/27 07:22:07;;;;;;;65.63;35.53;;;10.40;99.90;;;;;;4851177;29;20081;-86
2024/01/27 07:24:37;;;;;;;67.45;37.38;;;10.20;99.90;;;;;;4866464;29;20101;-85
2024/01/27 07:27:04;;;;;;;60.75;36.60;;;10.20;99.90;;;;;;4851165;29;20030;-85
2024/01/27 07:29:34;;;;;;;63.25;36.38;;;10.20;99.90;;;;;;4850921;29;20443;-85
2024/01/27 07:32:01;;;;;;;72.53;37.33;;;10.30;99.90;;;;;;4850939;29;20031;-84
2024/01/27 07:34:27;;;;;;;77.30;36.47;;;10.40;99.90;;;;;;4866243;29;20042;-83
2024/01/27 07:36:54;;;;;;;76.03;36.58;;;10.50;99.90;;;;;;4851576;29;20032;-84
2024/01/27 07:39:21;;;;;;;74.07;34.95;;;10.70;99.90;;;;;;4867070;29;20077;-83
2024/01/27 07:41:48;;;;;;;66.20;35.03;;;10.90;99.90;;;;;;4848643;29;20050;-84
2024/01/27 07:44:16;;;;;;;75.65;39.15;;;11.00;99.90;;;;;;4851009;29;20448;-80
2024/01/27 07:46:42;;;;;;;81.97;37.20;;;11.20;99.90;;;;;;4863669;29;20022;-78
2024/01/27 07:49:12;;;;;;;70.47;36.50;;;11.40;99.90;;;;;;4869607;29;20034;-78
2024/01/27 07:51:45;;;;;;;66.47;36.22;;;11.40;99.90;;;;;;4869677;29;20068;-78
2024/01/27 07:54:16;;;;;;;69.38;36.13;;;11.60;99.90;;;;;;4869705;29;20038;-78
2024/01/27 07:56:44;;;;;;;69.32;35.75;;;11.60;99.90;;;;;;4858619;29;20484;-78
2024/01/27 07:59:14;;;;;;;69.25;34.70;;;11.70;99.90;;;;;;4865362;29;20053;-80
2024/01/27 08:01:43;;;;;;;66.60;36.00;;;11.80;99.90;;;;;;4866280;29;20492;-78
2024/01/27 08:04:10;;;;;;;67.10;35.97;;;11.90;99.90;;;;;;4864997;29;20564;-79
2024/01/27 08:06:48;;;;;;;71.97;37.72;;;11.90;99.90;;;;;;4866285;29;20041;-79
2024/01/27 08:09:15;;;;;;;63.83;36.92;;;11.90;99.90;;;;;;4866193;29;20476;-79
2024/01/27 08:11:42;;;;;;;67.53;37.13;;;11.90;99.90;;;;;;4865898;29;20028;-79
2024/01/27 08:14:11;;;;;;;67.32;37.00;;;11.90;99.90;;;;;;4863535;29;20041;-80
2024/01/27 08:16:37;;;;;;;70.95;36.88;;;11.90;99.90;;;;;;4878729;29;20021;-86
2024/01/27 08:19:04;;;;;;;69.88;35.58;;;12.00;99.90;;;;;;4879984;29;20038;-85
2024/01/27 08:21:31;;;;;;;70.15;35.92;;;11.90;99.90;;;;;;4878965;29;20065;-85
2024/01/27 08:23:57;;;;;;;68.47;36.10;;;12.10;99.90;;;;;;4878623;29;20048;-84
2024/01/27 08:26:24;;;;;;;63.38;37.03;;;12.10;99.90;;;;;;4872143;29;20124;-84
2024/01/27 08:28:50;;;;;;;68.80;36.00;;;12.30;99.90;;;;;;4863152;29;20072;-86
2024/01/27 08:31:17;;;;;;;60.92;34.50;;;12.60;99.90;;;;;;4863304;29;20025;-84
2024/01/27 08:33:43;;;;;;;62.53;33.78;;;12.60;99.90;;;;;;4862767;29;20514;-84
2024/01/27 08:36:14;;;;;;;56.35;32.28;;;12.80;99.90;;;;;;4847652;29;20022;-84
2024/01/27 08:38:41;;;;;;;57.92;31.48;;;13.20;99.90;;;;;;4862718;29;20048;-85
2024/01/27 08:41:08;;;;;;;52.20;33.33;;;13.60;99.90;;;;;;4878722;29;20052;-87
2024/01/27 08:43:35;;;;;;;57.42;33.58;;;13.60;99.90;;;;;;4881489;29;20048;-85
2024/01/27 08:46:01;;;;;;;56.05;33.38;;;13.50;99.90;;;;;;4881227;29;20479;-86
2024/01/27 08:48:28;;;;;;;52.10;31.80;;;13.40;99.90;;;;;;4884639;29;20064;-86
2024/01/27 08:50:55;;;;;;;49.63;30.90;;;13.30;99.90;;;;;;4882934;29;20021;-86
2024/01/27 08:53:21;;;;;;;40.72;27.90;;;13.50;99.90;;;;;;4881973;29;20029;-88
2024/01/27 08:55:48;;;;;;;37.35;27.13;;;13.60;99.90;;;;;;4881883;29;20040;-86
2024/01/27 08:58:15;;;;;;;46.08;28.42;;;13.80;99.90;;;;;;4861764;29;20037;-86
2024/01/27 09:00:41;;;;;;;47.47;28.48;;;13.80;99.90;;;;;;4866449;29;20033;-85
2024/01/27 09:03:07;;;;;;;38.47;26.92;;;13.80;99.90;;;;;;4850582;29;20041;-86
2024/01/27 09:05:43;;;;;;;40.42;25.75;;;13.80;99.90;;;;;;4868080;29;20073;-85
2024/01/27 09:08:10;;;;;;;34.90;25.27;;;13.80;99.90;;;;;;4872456;29;20068;-87
2024/01/27 09:10:36;;;;;;;41.60;25.15;;;13.90;99.90;;;;;;4869076;29;20069;-87
2024/01/27 09:13:03;;;;;;;31.27;24.50;;;14.00;99.90;;;;;;4843501;29;20038;-85
2024/01/27 09:15:29;;;;;;;38.65;24.45;;;14.10;99.90;;;;;;4843832;29;20056;-84
2024/01/27 09:17:56;;;;;;;39.25;24.77;;;14.20;99.90;;;;;;4843074;29;20421;-85
2024/01/27 09:20:23;;;;;;;34.55;24.95;;;14.40;99.90;;;;;;4842360;29;20042;-84
2024/01/27 09:22:52;;;;;;;34.45;24.13;;;14.40;99.90;;;;;;4842755;29;20046;-85
2024/01/27 09:25:19;;;;;;;33.28;22.13;;;14.30;99.90;;;;;;4842258;29;20038;-86
2024/01/27 09:27:45;;;;;;;30.75;23.73;;;14.40;99.90;;;;;;4844001;29;20038;-84
2024/01/27 09:30:12;;;;;;;33.17;23.65;;;14.50;99.90;;;;;;4827092;29;20151;-85
2024/01/27 09:32:40;;;;;;;36.95;24.92;;;14.50;99.90;;;;;;4828380;29;20045;-77
2024/01/27 22:27:33;;;;;;;24.92;18.05;;;7.50;99.90;;;;;;5422462;23;20409;-83
2024/01/27 22:29:59;;;;;;;20.77;16.70;;;7.40;99.90;;;;;;4913413;29;20028;-84
2024/01/27 22:32:26;;;;;;;26.25;17.27;;;7.40;99.90;;;;;;4902123;29;20481;-82
2024/01/27 22:34:52;;;;;;;39.17;19.95;;;7.30;99.90;;;;;;4919198;29;20056;-83
2024/01/27 22:37:22;;;;;;;25.80;18.27;;;7.30;99.90;;;;;;4898476;29;20029;-83
2024/01/27 22:39:48;;;;;;;20.40;17.13;;;7.20;99.90;;;;;;4914941;29;20517;-84
2024/01/27 22:42:14;;;;;;;29.17;17.10;;;7.20;99.90;;;;;;4914811;29;20037;-85
2024/01/27 22:44:41;;;;;;;19.65;16.10;;;7.20;99.90;;;;;;4899230;29;20033;-85
2024/01/27 22:47:08;;;;;;;20.73;16.08;;;7.20;99.90;;;;;;4898970;29;20029;-83
2024/01/27 22:49:35;;;;;;;20.20;14.73;;;7.10;99.90;;;;;;4914568;29;20465;-85
2024/01/27 22:52:05;;;;;;;18.50;14.70;;;7.10;99.90;;;;;;4914716;29;20035;-85
2024/01/27 22:54:32;;;;;;;18.55;14.65;;;7.10;99.90;;;;;;4914653;29;20033;-84
2024/01/27 22:56:59;;;;;;;16.33;14.73;;;7.10;99.90;;;;;;4914396;29;20043;-84
2024/01/27 22:59:25;;;;;;;23.55;16.63;;;7.10;99.90;;;;;;4899255;29;20060;-83
2024/01/27 23:01:52;;;;;;;21.27;15.30;;;7.10;99.90;;;;;;4914323;29;20052;-88
2024/01/27 23:04:19;;;;;;;17.02;15.25;;;7.10;99.90;;;;;;4914423;29;20041;-82
2024/01/27 23:06:48;;;;;;;18.05;16.00;;;7.10;99.90;;;;;;4913695;29;20032;-84
2024/01/27 23:09:15;;;;;;;21.20;16.38;;;7.10;99.90;;;;;;4914484;29;20047;-84
2024/01/27 23:11:41;;;;;;;19.25;15.98;;;7.00;99.90;;;;;;4914330;29;20029;-84
2024/01/27 23:14:08;;;;;;;28.85;16.02;;;7.00;99.90;;;;;;4914362;29;20035;-84
2024/01/27 23:16:34;;;;;;;17.83;15.27;;;7.00;99.90;;;;;;4914426;29;20020;-83
2024/01/27 23:19:01;;;;;;;25.35;16.45;;;7.00;99.90;;;;;;4911762;29;20424;-84
2024/01/27 23:21:28;;;;;;;23.15;16.77;;;7.00;99.90;;;;;;4879810;29;20068;-84
2024/01/27 23:23:54;;;;;;;20.75;16.08;;;7.00;99.90;;;;;;4864288;29;20124;-84
2024/01/27 23:26:22;;;;;;;19.55;15.60;;;7.00;99.90;;;;;;4864305;29;20037;-84
2024/01/27 23:28:50;;;;;;;23.33;15.88;;;7.00;99.90;;;;;;4880647;29;20057;-85
2024/01/27 23:31:16;;;;;;;21.90;15.13;;;6.90;99.90;;;;;;4914828;29;20033;-84
2024/01/27 23:33:43;;;;;;;16.42;14.82;;;6.90;99.90;;;;;;4916160;29;20035;-84
2024/01/27 23:36:09;;;;;;;17.13;14.98;;;6.90;99.90;;;;;;4914739;29;20028;-82
2024/01/27 23:38:37;;;;;;;19.10;15.27;;;6.90;99.90;;;;;;4899103;29;20060;-84
2024/01/27 23:41:04;;;;;;;17.98;15.50;;;6.90;99.90;;;;;;4913623;29;20028;-86
2024/01/27 23:43:30;;;;;;;23.98;15.90;;;6.90;99.90;;;;;;4897986;29;20500;-84
2024/01/27 23:45:56;;;;;;;20.92;15.80;;;6.90;99.90;;;;;;4913789;29;20119;-84
2024/01/27 23:48:23;;;;;;;18.00;16.20;;;6.90;99.90;;;;;;4913587;29;20064;-85
2024/01/27 23:50:51;;;;;;;19.05;15.25;;;6.80;99.90;;;;;;4913708;29;20037;-84
2024/01/27 23:53:20;;;;;;;20.27;14.90;;;6.90;99.90;;;;;;4897975;29;20032;-86
2024/01/27 23:55:53;;;;;;;17.58;15.88;;;6.90;99.90;;;;;;4913578;29;20052;-84
2024/01/27 23:58:19;;;;;;;23.25;15.55;;;6.90;99.90;;;;;;4913313;29;20044;-84
